sensor_id;sensor_type;location;lat;lon;timestamp;temperature;humidity
52725;DHT22;38621;52.830;6.914;2023-09-19T00:01:08;14.70;99.90
52725;DHT22;38621;52.830;6.914;2023-09-19T00:03:37;14.70;99.90
52725;DHT22;38621;52.830;6.914;2023-09-19T00:06:04;14.70;99.90
52725;DHT22;38621;52.830;6.914;2023-09-19T00:08:31;14.70;99.90
52725;DHT22;38621;52.830;6.914;2023-09-19T00:10:58;14.60;99.90
52725;DHT22;38621;52.830;6.914;2023-09-19T00:13:29;14.60;99.90
52725;DHT22;38621;52.830;6.914;2023-09-19T00:15:56;14.50;99.90
52725;DHT22;38621;52.830;6.914;2023-09-19T00:18:24;14.40;99.90
52725;DHT22;38621;52.830;6.914;2023-09-19T00:20:57;14.30;99.90
52725;DHT22;38621;52.830;6.914;2023-09-19T00:23:23;14.20;99.90
52725;DHT22;38621;52.830;6.914;2023-09-19T00:25:50;14.10;99.90
52725;DHT22;38621;52.830;6.914;2023-09-19T00:28:17;14.00;99.90
52725;DHT22;38621;52.830;6.914;2023-09-19T00:30:44;13.90;99.90
52725;DHT22;38621;52.830;6.914;2023-09-19T00:33:11;13.80;99.90
52725;DHT22;38621;52.830;6.914;2023-09-19T00:35:50;13.70;99.90
52725;DHT22;38621;52.830;6.914;2023-09-19T00:38:15;13.70;99.90
52725;DHT22;38621;52.830;6.914;2023-09-19T00:40:46;13.60;99.90
52725;DHT22;38621;52.830;6.914;2023-09-19T00:43:12;13.50;99.90
52725;DHT22;38621;52.830;6.914;2023-09-19T00:45:39;13.50;99.90
52725;DHT22;38621;52.830;6.914;2023-09-19T00:48:08;13.50;99.90
52725;DHT22;38621;52.830;6.914;2023-09-19T00:50:35;13.40;99.90
52725;DHT22;38621;52.830;6.914;2023-09-19T00:53:02;13.40;99.90
52725;DHT22;38621;52.830;6.914;2023-09-19T00:55:36;13.30;99.90
52725;DHT22;38621;52.830;6.914;2023-09-19T00:58:03;13.30;99.90
52725;DHT22;38621;52.830;6.914;2023-09-19T01:00:29;13.30;99.90
52725;DHT22;38621;52.830;6.914;2023-09-19T01:02:56;13.30;99.90
52725;DHT22;38621;52.830;6.914;2023-09-19T01:05:21;13.30;99.90
52725;DHT22;38621;52.830;6.914;2023-09-19T01:07:49;13.30;99.90
52725;DHT22;38621;52.830;6.914;2023-09-19T01:10:19;13.30;99.90
52725;DHT22;38621;52.830;6.914;2023-09-19T01:29:43;13.60;99.90
52725;DHT22;38621;52.830;6.914;2023-09-19T01:32:11;13.60;99.90
52725;DHT22;38621;52.830;6.914;2023-09-19T01:34:53;13.60;99.90
52725;DHT22;38621;52.830;6.914;2023-09-19T01:37:21;13.60;99.90
52725;DHT22;38621;52.830;6.914;2023-09-19T01:40:12;13.60;99.90
52725;DHT22;38621;52.830;6.914;2023-09-19T01:51:02;13.40;99.90
52725;DHT22;38621;52.830;6.914;2023-09-19T01:53:55;13.50;99.90
52725;DHT22;38621;52.830;6.914;2023-09-19T01:56:54;13.50;99.90
52725;DHT22;38621;52.830;6.914;2023-09-19T01:59:23;13.50;99.90
52725;DHT22;38621;52.830;6.914;2023-09-19T02:01:52;13.50;99.90
52725;DHT22;38621;52.830;6.914;2023-09-19T02:04:18;13.40;99.90
52725;DHT22;38621;52.830;6.914;2023-09-19T02:06:44;13.50;99.90
52725;DHT22;38621;52.830;6.914;2023-09-19T02:09:14;13.50;99.90
52725;DHT22;38621;52.830;6.914;2023-09-19T02:11:40;13.50;99.90
52725;DHT22;38621;52.830;6.914;2023-09-19T02:14:07;13.40;99.90
52725;DHT22;38621;52.830;6.914;2023-09-19T02:16:34;13.40;99.90
52725;DHT22;38621;52.830;6.914;2023-09-19T02:19:00;13.50;99.90
52725;DHT22;38621;52.830;6.914;2023-09-19T02:21:26;13.50;99.90
52725;DHT22;38621;52.830;6.914;2023-09-19T02:23:55;13.50;99.90
52725;DHT22;38621;52.830;6.914;2023-09-19T02:26:21;13.40;99.90
52725;DHT22;38621;52.830;6.914;2023-09-19T02:28:47;13.40;99.90
52725;DHT22;38621;52.830;6.914;2023-09-19T02:31:13;13.30;99.90
52725;DHT22;38621;52.830;6.914;2023-09-19T02:33:39;13.40;99.90
52725;DHT22;38621;52.830;6.914;2023-09-19T02:36:05;13.40;99.90
52725;DHT22;38621;52.830;6.914;2023-09-19T02:38:30;13.40;99.90
52725;DHT22;38621;52.830;6.914;2023-09-19T02:40:56;13.40;99.90
52725;DHT22;38621;52.830;6.914;2023-09-19T02:43:23;13.40;99.90
52725;DHT22;38621;52.830;6.914;2023-09-19T02:45:49;13.30;99.90
52725;DHT22;38621;52.830;6.914;2023-09-19T02:48:16;13.40;99.90
52725;DHT22;38621;52.830;6.914;2023-09-19T02:50:42;13.30;99.90
52725;DHT22;38621;52.830;6.914;2023-09-19T02:53:08;13.30;99.90
52725;DHT22;38621;52.830;6.914;2023-09-19T02:55:38;13.30;99.90
52725;DHT22;38621;52.830;6.914;2023-09-19T02:58:06;13.30;99.90
52725;DHT22;38621;52.830;6.914;2023-09-19T03:00:37;13.30;99.90
52725;DHT22;38621;52.830;6.914;2023-09-19T03:03:03;13.20;99.90
52725;DHT22;38621;52.830;6.914;2023-09-19T03:05:29;13.20;99.90
52725;DHT22;38621;52.830;6.914;2023-09-19T03:07:58;13.20;99.90
52725;DHT22;38621;52.830;6.914;2023-09-19T03:10:26;13.20;99.90
52725;DHT22;38621;52.830;6.914;2023-09-19T03:12:53;13.20;99.90
52725;DHT22;38621;52.830;6.914;2023-09-19T03:15:20;13.20;99.90
52725;DHT22;38621;52.830;6.914;2023-09-19T03:17:48;13.10;99.90
52725;DHT22;38621;52.830;6.914;2023-09-19T03:20:14;13.10;99.90
52725;DHT22;38621;52.830;6.914;2023-09-19T03:22:45;13.10;99.90
52725;DHT22;38621;52.830;6.914;2023-09-19T03:25:12;13.10;99.90
52725;DHT22;38621;52.830;6.914;2023-09-19T03:27:38;13.10;99.90
52725;DHT22;38621;52.830;6.914;2023-09-19T03:30:05;13.10;99.90
52725;DHT22;38621;52.830;6.914;2023-09-19T03:32:37;13.10;99.90
52725;DHT22;38621;52.830;6.914;2023-09-19T03:35:08;13.10;99.90
52725;DHT22;38621;52.830;6.914;2023-09-19T03:37:36;13.10;99.90
52725;DHT22;38621;52.830;6.914;2023-09-19T03:40:02;13.10;99.90
52725;DHT22;38621;52.830;6.914;2023-09-19T03:42:31;13.20;99.90
52725;DHT22;38621;52.830;6.914;2023-09-19T03:44:57;13.10;99.90
52725;DHT22;38621;52.830;6.914;2023-09-19T03:47:22;13.20;99.90
52725;DHT22;38621;52.830;6.914;2023-09-19T03:49:48;13.20;99.90
52725;DHT22;38621;52.830;6.914;2023-09-19T03:52:14;13.30;99.90
52725;DHT22;38621;52.830;6.914;2023-09-19T03:54:41;13.40;99.90
52725;DHT22;38621;52.830;6.914;2023-09-19T03:57:07;13.40;99.90
52725;DHT22;38621;52.830;6.914;2023-09-19T03:59:33;13.40;99.90
52725;DHT22;38621;52.830;6.914;2023-09-19T04:01:58;13.40;99.90
52725;DHT22;38621;52.830;6.914;2023-09-19T04:04:24;13.50;99.90
52725;DHT22;38621;52.830;6.914;2023-09-19T04:06:51;13.50;99.90
52725;DHT22;38621;52.830;6.914;2023-09-19T04:09:17;13.50;99.90
52725;DHT22;38621;52.830;6.914;2023-09-19T04:11:42;13.50;99.90
52725;DHT22;38621;52.830;6.914;2023-09-19T04:14:08;13.60;99.90
52725;DHT22;38621;52.830;6.914;2023-09-19T04:16:34;13.60;99.90
52725;DHT22;38621;52.830;6.914;2023-09-19T04:18:59;13.60;99.90
52725;DHT22;38621;52.830;6.914;2023-09-19T04:21:25;13.70;99.90
52725;DHT22;38621;52.830;6.914;2023-09-19T04:23:52;13.70;99.90
52725;DHT22;38621;52.830;6.914;2023-09-19T04:26:17;13.70;99.90
52725;DHT22;38621;52.830;6.914;2023-09-19T04:28:44;13.70;99.90
52725;DHT22;38621;52.830;6.914;2023-09-19T04:31:09;13.70;99.90
52725;DHT22;38621;52.830;6.914;2023-09-19T04:33:37;13.70;99.90
52725;DHT22;38621;52.830;6.914;2023-09-19T04:36:03;13.70;99.90
52725;DHT22;38621;52.830;6.914;2023-09-19T04:38:31;13.60;99.90
52725;DHT22;38621;52.830;6.914;2023-09-19T04:40:59;13.60;99.90
52725;DHT22;38621;52.830;6.914;2023-09-19T04:43:25;13.60;99.90
52725;DHT22;38621;52.830;6.914;2023-09-19T04:45:51;13.60;99.90
52725;DHT22;38621;52.830;6.914;2023-09-19T04:48:22;13.60;99.90
52725;DHT22;38621;52.830;6.914;2023-09-19T04:50:49;13.60;99.90
52725;DHT22;38621;52.830;6.914;2023-09-19T04:53:16;13.60;99.90
52725;DHT22;38621;52.830;6.914;2023-09-19T04:55:43;13.60;99.90
52725;DHT22;38621;52.830;6.914;2023-09-19T04:58:08;13.60;99.90
52725;DHT22;38621;52.830;6.914;2023-09-19T05:00:34;13.70;99.90
52725;DHT22;38621;52.830;6.914;2023-09-19T05:03:00;13.70;99.90
52725;DHT22;38621;52.830;6.914;2023-09-19T05:05:26;13.80;99.90
52725;DHT22;38621;52.830;6.914;2023-09-19T05:07:52;13.80;99.90
52725;DHT22;38621;52.830;6.914;2023-09-19T05:10:21;13.80;99.90
52725;DHT22;38621;52.830;6.914;2023-09-19T05:12:47;13.80;99.90
52725;DHT22;38621;52.830;6.914;2023-09-19T05:15:14;13.70;99.90
52725;DHT22;38621;52.830;6.914;2023-09-19T05:17:48;13.80;99.90
52725;DHT22;38621;52.830;6.914;2023-09-19T05:20:15;13.70;99.90
52725;DHT22;38621;52.830;6.914;2023-09-19T05:22:57;13.80;99.90
52725;DHT22;38621;52.830;6.914;2023-09-19T05:25:22;13.80;99.90
52725;DHT22;38621;52.830;6.914;2023-09-19T05:27:48;13.80;99.90
52725;DHT22;38621;52.830;6.914;2023-09-19T05:30:16;13.80;99.90
52725;DHT22;38621;52.830;6.914;2023-09-19T05:32:41;13.80;99.90
52725;DHT22;38621;52.830;6.914;2023-09-19T05:35:08;13.70;99.90
52725;DHT22;38621;52.830;6.914;2023-09-19T05:37:35;13.70;99.90
52725;DHT22;38621;52.830;6.914;2023-09-19T05:40:02;13.70;99.90
52725;DHT22;38621;52.830;6.914;2023-09-19T05:42:32;13.60;99.90
52725;DHT22;38621;52.830;6.914;2023-09-19T05:44:58;13.60;99.90
52725;DHT22;38621;52.830;6.914;2023-09-19T05:47:24;13.50;99.90
52725;DHT22;38621;52.830;6.914;2023-09-19T05:49:50;13.50;99.90
52725;DHT22;38621;52.830;6.914;2023-09-19T05:52:16;13.50;99.90
52725;DHT22;38621;52.830;6.914;2023-09-19T05:54:43;13.50;99.90
52725;DHT22;38621;52.830;6.914;2023-09-19T05:57:09;13.40;99.90
52725;DHT22;38621;52.830;6.914;2023-09-19T05:59:37;13.50;99.90
52725;DHT22;38621;52.830;6.914;2023-09-19T06:02:05;13.50;99.90
52725;DHT22;38621;52.830;6.914;2023-09-19T06:04:32;13.40;99.90
52725;DHT22;38621;52.830;6.914;2023-09-19T06:06:57;13.40;99.90
52725;DHT22;38621;52.830;6.914;2023-09-19T06:09:23;13.40;99.90
52725;DHT22;38621;52.830;6.914;2023-09-19T06:11:49;13.40;99.90
52725;DHT22;38621;52.830;6.914;2023-09-19T06:14:15;13.50;99.90
52725;DHT22;38621;52.830;6.914;2023-09-19T06:16:43;13.50;99.90
52725;DHT22;38621;52.830;6.914;2023-09-19T06:19:09;13.50;99.90
52725;DHT22;38621;52.830;6.914;2023-09-19T06:21:36;13.50;99.90
52725;DHT22;38621;52.830;6.914;2023-09-19T06:24:02;13.60;99.90
52725;DHT22;38621;52.830;6.914;2023-09-19T06:26:28;13.60;99.90
52725;DHT22;38621;52.830;6.914;2023-09-19T06:28:55;13.60;99.90
52725;DHT22;38621;52.830;6.914;2023-09-19T06:31:21;13.70;99.90
52725;DHT22;38621;52.830;6.914;2023-09-19T06:33:48;13.80;99.90
52725;DHT22;38621;52.830;6.914;2023-09-19T06:36:14;13.80;99.90
52725;DHT22;38621;52.830;6.914;2023-09-19T06:38:40;13.90;99.90
52725;DHT22;38621;52.830;6.914;2023-09-19T06:41:06;14.00;99.90
52725;DHT22;38621;52.830;6.914;2023-09-19T06:43:35;14.00;99.90
52725;DHT22;38621;52.830;6.914;2023-09-19T06:46:01;14.00;99.90
52725;DHT22;38621;52.830;6.914;2023-09-19T06:48:27;13.90;99.90
52725;DHT22;38621;52.830;6.914;2023-09-19T06:50:55;13.90;99.90
52725;DHT22;38621;52.830;6.914;2023-09-19T06:53:21;13.80;99.90
52725;DHT22;38621;52.830;6.914;2023-09-19T06:55:52;13.80;99.90
52725;DHT22;38621;52.830;6.914;2023-09-19T06:58:18;13.70;99.90
52725;DHT22;38621;52.830;6.914;2023-09-19T07:00:45;13.70;99.90
52725;DHT22;38621;52.830;6.914;2023-09-19T07:03:14;13.70;99.90
52725;DHT22;38621;52.830;6.914;2023-09-19T07:05:41;13.60;99.90
52725;DHT22;38621;52.830;6.914;2023-09-19T07:08:09;13.60;99.90
52725;DHT22;38621;52.830;6.914;2023-09-19T07:10:36;13.70;99.90
52725;DHT22;38621;52.830;6.914;2023-09-19T07:13:04;13.80;99.90
52725;DHT22;38621;52.830;6.914;2023-09-19T07:15:35;13.90;99.90
52725;DHT22;38621;52.830;6.914;2023-09-19T07:18:04;14.10;99.90
52725;DHT22;38621;52.830;6.914;2023-09-19T07:20:31;14.20;99.90
52725;DHT22;38621;52.830;6.914;2023-09-19T07:22:58;14.30;99.90
52725;DHT22;38621;52.830;6.914;2023-09-19T07:25:30;14.40;99.90
52725;DHT22;38621;52.830;6.914;2023-09-19T07:27:59;14.40;99.90
52725;DHT22;38621;52.830;6.914;2023-09-19T07:30:26;14.40;99.90
52725;DHT22;38621;52.830;6.914;2023-09-19T07:32:52;14.50;99.90
52725;DHT22;38621;52.830;6.914;2023-09-19T07:35:18;14.50;99.90
52725;DHT22;38621;52.830;6.914;2023-09-19T07:37:46;14.50;99.90
52725;DHT22;38621;52.830;6.914;2023-09-19T07:40:15;14.60;99.90
52725;DHT22;38621;52.830;6.914;2023-09-19T07:42:41;14.60;99.90
52725;DHT22;38621;52.830;6.914;2023-09-19T07:45:08;14.60;99.90
52725;DHT22;38621;52.830;6.914;2023-09-19T07:47:34;14.70;99.90
52725;DHT22;38621;52.830;6.914;2023-09-19T07:50:02;14.60;99.90
52725;DHT22;38621;52.830;6.914;2023-09-19T07:52:28;14.60;99.90
52725;DHT22;38621;52.830;6.914;2023-09-19T07:54:54;14.60;99.90
52725;DHT22;38621;52.830;6.914;2023-09-19T07:57:20;14.70;99.90
52725;DHT22;38621;52.830;6.914;2023-09-19T07:59:46;14.70;99.90
52725;DHT22;38621;52.830;6.914;2023-09-19T08:02:12;14.90;99.90
52725;DHT22;38621;52.830;6.914;2023-09-19T08:04:43;15.00;99.90
52725;DHT22;38621;52.830;6.914;2023-09-19T08:07:12;15.10;99.90
52725;DHT22;38621;52.830;6.914;2023-09-19T08:09:38;15.20;99.90
52725;DHT22;38621;52.830;6.914;2023-09-19T08:12:08;15.30;99.90
52725;DHT22;38621;52.830;6.914;2023-09-19T08:14:36;15.40;99.90
52725;DHT22;38621;52.830;6.914;2023-09-19T08:17:02;15.50;99.90
52725;DHT22;38621;52.830;6.914;2023-09-19T08:19:28;15.50;99.90
52725;DHT22;38621;52.830;6.914;2023-09-19T08:21:56;15.50;99.90
52725;DHT22;38621;52.830;6.914;2023-09-19T08:24:27;15.50;99.90
52725;DHT22;38621;52.830;6.914;2023-09-19T08:26:57;15.50;99.90
52725;DHT22;38621;52.830;6.914;2023-09-19T08:29:24;15.60;99.90
52725;DHT22;38621;52.830;6.914;2023-09-19T08:31:56;15.60;99.90
52725;DHT22;38621;52.830;6.914;2023-09-19T08:34:25;15.60;99.90
52725;DHT22;38621;52.830;6.914;2023-09-19T08:36:52;15.60;99.90
52725;DHT22;38621;52.830;6.914;2023-09-19T08:39:25;15.60;99.90
52725;DHT22;38621;52.830;6.914;2023-09-19T08:41:58;15.70;99.90
52725;DHT22;38621;52.830;6.914;2023-09-19T08:44:24;15.70;99.90
52725;DHT22;38621;52.830;6.914;2023-09-19T08:46:54;15.80;99.90
52725;DHT22;38621;52.830;6.914;2023-09-19T08:49:31;15.80;99.90
52725;DHT22;38621;52.830;6.914;2023-09-19T08:52:14;16.00;99.90
52725;DHT22;38621;52.830;6.914;2023-09-19T08:54:47;16.00;99.90
52725;DHT22;38621;52.830;6.914;2023-09-19T08:57:14;16.00;99.90
52725;DHT22;38621;52.830;6.914;2023-09-19T08:59:50;16.10;99.90
52725;DHT22;38621;52.830;6.914;2023-09-19T09:02:16;16.10;99.90
52725;DHT22;38621;52.830;6.914;2023-09-19T09:04:45;16.20;99.90
52725;DHT22;38621;52.830;6.914;2023-09-19T09:07:13;16.20;99.90
52725;DHT22;38621;52.830;6.914;2023-09-19T09:09:39;16.20;99.90
52725;DHT22;38621;52.830;6.914;2023-09-19T09:12:17;16.20;99.90
52725;DHT22;38621;52.830;6.914;2023-09-19T09:14:46;16.20;99.90
52725;DHT22;38621;52.830;6.914;2023-09-19T09:17:14;16.20;99.90
52725;DHT22;38621;52.830;6.914;2023-09-19T09:19:40;16.20;99.90
52725;DHT22;38621;52.830;6.914;2023-09-19T09:22:09;16.30;99.90
52725;DHT22;38621;52.830;6.914;2023-09-19T09:24:35;16.40;99.90
52725;DHT22;38621;52.830;6.914;2023-09-19T09:27:05;16.40;99.90
52725;DHT22;38621;52.830;6.914;2023-09-19T09:29:45;16.50;99.90
52725;DHT22;38621;52.830;6.914;2023-09-19T09:32:31;16.80;99.90
52725;DHT22;38621;52.830;6.914;2023-09-19T09:35:03;16.80;99.90
52725;DHT22;38621;52.830;6.914;2023-09-19T09:37:35;16.90;99.90
52725;DHT22;38621;52.830;6.914;2023-09-19T09:40:04;16.90;99.90
52725;DHT22;38621;52.830;6.914;2023-09-19T09:42:39;16.90;99.90
52725;DHT22;38621;52.830;6.914;2023-09-19T09:45:20;17.00;99.90
52725;DHT22;38621;52.830;6.914;2023-09-19T09:48:15;17.20;99.90
52725;DHT22;38621;52.830;6.914;2023-09-19T09:50:48;17.20;99.90
52725;DHT22;38621;52.830;6.914;2023-09-19T09:53:43;17.30;99.90
52725;DHT22;38621;52.830;6.914;2023-09-19T09:56:11;17.20;99.90
52725;DHT22;38621;52.830;6.914;2023-09-19T09:58:51;17.20;99.90
52725;DHT22;38621;52.830;6.914;2023-09-19T10:01:21;17.20;99.90
52725;DHT22;38621;52.830;6.914;2023-09-19T10:03:57;17.30;99.90
52725;DHT22;38621;52.830;6.914;2023-09-19T10:06:23;17.40;99.90
52725;DHT22;38621;52.830;6.914;2023-09-19T10:11:46;17.60;99.90
52725;DHT22;38621;52.830;6.914;2023-09-19T10:14:15;17.70;99.90
52725;DHT22;38621;52.830;6.914;2023-09-19T10:16:48;17.70;99.90
52725;DHT22;38621;52.830;6.914;2023-09-19T10:19:36;17.70;99.90
52725;DHT22;38621;52.830;6.914;2023-09-19T10:22:02;17.70;99.90
52725;DHT22;38621;52.830;6.914;2023-09-19T10:24:30;17.70;99.90
52725;DHT22;38621;52.830;6.914;2023-09-19T10:26:59;17.60;99.90
52725;DHT22;38621;52.830;6.914;2023-09-19T10:29:28;17.50;99.90
52725;DHT22;38621;52.830;6.914;2023-09-19T10:31:57;17.60;99.90
52725;DHT22;38621;52.830;6.914;2023-09-19T10:34:25;17.70;99.90
52725;DHT22;38621;52.830;6.914;2023-09-19T10:36:51;17.60;99.90
52725;DHT22;38621;52.830;6.914;2023-09-19T10:39:17;17.70;99.90
52725;DHT22;38621;52.830;6.914;2023-09-19T10:41:50;17.80;99.90
52725;DHT22;38621;52.830;6.914;2023-09-19T10:44:24;18.00;99.90
52725;DHT22;38621;52.830;6.914;2023-09-19T10:46:51;18.00;99.90
52725;DHT22;38621;52.830;6.914;2023-09-19T10:49:19;17.90;99.90
52725;DHT22;38621;52.830;6.914;2023-09-19T10:51:46;17.80;99.90
52725;DHT22;38621;52.830;6.914;2023-09-19T10:54:20;17.70;99.90
52725;DHT22;38621;52.830;6.914;2023-09-19T10:56:52;17.60;99.90
52725;DHT22;38621;52.830;6.914;2023-09-19T10:59:20;17.60;99.90
52725;DHT22;38621;52.830;6.914;2023-09-19T11:01:56;17.70;99.90
52725;DHT22;38621;52.830;6.914;2023-09-19T11:04:32;17.80;99.90
52725;DHT22;38621;52.830;6.914;2023-09-19T11:07:13;18.00;99.90
52725;DHT22;38621;52.830;6.914;2023-09-19T11:26:50;17.90;99.90
52725;DHT22;38621;52.830;6.914;2023-09-19T11:29:32;17.90;99.90
52725;DHT22;38621;52.830;6.914;2023-09-19T11:31:58;18.10;99.90
52725;DHT22;38621;52.830;6.914;2023-09-19T11:37:03;18.10;99.90
52725;DHT22;38621;52.830;6.914;2023-09-19T11:40:08;18.10;99.90
52725;DHT22;38621;52.830;6.914;2023-09-19T11:42:44;18.00;99.90
52725;DHT22;38621;52.830;6.914;2023-09-19T11:48:18;17.90;99.90
52725;DHT22;38621;52.830;6.914;2023-09-19T11:50:45;18.10;99.90
52725;DHT22;38621;52.830;6.914;2023-09-19T11:53:13;18.20;99.90
52725;DHT22;38621;52.830;6.914;2023-09-19T11:55:40;18.30;99.90
52725;DHT22;38621;52.830;6.914;2023-09-19T11:58:08;18.40;99.90
52725;DHT22;38621;52.830;6.914;2023-09-19T12:00:38;18.40;99.90
52725;DHT22;38621;52.830;6.914;2023-09-19T12:03:11;18.40;99.90
52725;DHT22;38621;52.830;6.914;2023-09-19T12:05:39;18.40;99.90
52725;DHT22;38621;52.830;6.914;2023-09-19T12:08:05;18.30;99.90
52725;DHT22;38621;52.830;6.914;2023-09-19T12:10:50;18.30;99.90
52725;DHT22;38621;52.830;6.914;2023-09-19T12:13:17;18.40;99.90
52725;DHT22;38621;52.830;6.914;2023-09-19T12:15:44;18.40;99.90
52725;DHT22;38621;52.830;6.914;2023-09-19T12:18:29;18.40;99.90
52725;DHT22;38621;52.830;6.914;2023-09-19T12:20:55;18.20;99.90
52725;DHT22;38621;52.830;6.914;2023-09-19T12:23:23;18.10;99.90
52725;DHT22;38621;52.830;6.914;2023-09-19T12:25:49;18.00;99.90
52725;DHT22;38621;52.830;6.914;2023-09-19T12:28:19;18.00;99.90
52725;DHT22;38621;52.830;6.914;2023-09-19T12:30:48;18.10;99.90
52725;DHT22;38621;52.830;6.914;2023-09-19T12:33:19;18.10;99.90
52725;DHT22;38621;52.830;6.914;2023-09-19T12:35:51;18.20;99.90
52725;DHT22;38621;52.830;6.914;2023-09-19T12:38:27;18.30;99.90
52725;DHT22;38621;52.830;6.914;2023-09-19T12:41:01;18.50;99.90
52725;DHT22;38621;52.830;6.914;2023-09-19T12:43:29;18.50;99.90
52725;DHT22;38621;52.830;6.914;2023-09-19T12:45:58;18.40;99.90
52725;DHT22;38621;52.830;6.914;2023-09-19T12:48:26;18.30;99.90
52725;DHT22;38621;52.830;6.914;2023-09-19T12:51:05;18.20;99.90
52725;DHT22;38621;52.830;6.914;2023-09-19T12:53:41;18.30;99.90
52725;DHT22;38621;52.830;6.914;2023-09-19T12:56:16;18.30;99.90
52725;DHT22;38621;52.830;6.914;2023-09-19T12:58:56;18.30;99.90
52725;DHT22;38621;52.830;6.914;2023-09-19T13:01:25;18.30;99.90
52725;DHT22;38621;52.830;6.914;2023-09-19T13:06:51;18.20;99.90
52725;DHT22;38621;52.830;6.914;2023-09-19T13:09:19;18.20;99.90
52725;DHT22;38621;52.830;6.914;2023-09-19T13:11:46;18.30;99.90
52725;DHT22;38621;52.830;6.914;2023-09-19T13:17:06;18.30;99.90
52725;DHT22;38621;52.830;6.914;2023-09-19T13:19:48;18.30;99.90
52725;DHT22;38621;52.830;6.914;2023-09-19T13:22:43;18.20;99.90
52725;DHT22;38621;52.830;6.914;2023-09-19T13:25:21;18.10;99.90
52725;DHT22;38621;52.830;6.914;2023-09-19T13:27:51;18.10;99.90
52725;DHT22;38621;52.830;6.914;2023-09-19T13:30:20;18.10;99.90
52725;DHT22;38621;52.830;6.914;2023-09-19T13:32:46;18.10;99.90
52725;DHT22;38621;52.830;6.914;2023-09-19T13:35:13;18.10;99.90
52725;DHT22;38621;52.830;6.914;2023-09-19T13:37:40;18.10;99.90
52725;DHT22;38621;52.830;6.914;2023-09-19T13:40:11;18.10;99.90
52725;DHT22;38621;52.830;6.914;2023-09-19T13:42:37;18.10;99.90
52725;DHT22;38621;52.830;6.914;2023-09-19T13:45:04;18.10;99.90
52725;DHT22;38621;52.830;6.914;2023-09-19T13:47:30;18.10;99.90
52725;DHT22;38621;52.830;6.914;2023-09-19T13:49:56;18.10;99.90
52725;DHT22;38621;52.830;6.914;2023-09-19T13:52:22;18.10;99.90
52725;DHT22;38621;52.830;6.914;2023-09-19T13:54:51;18.10;99.90
52725;DHT22;38621;52.830;6.914;2023-09-19T13:57:18;18.10;99.90
52725;DHT22;38621;52.830;6.914;2023-09-19T13:59:44;18.00;99.90
52725;DHT22;38621;52.830;6.914;2023-09-19T14:02:10;18.00;99.90
52725;DHT22;38621;52.830;6.914;2023-09-19T14:04:35;18.00;99.90
52725;DHT22;38621;52.830;6.914;2023-09-19T14:07:02;18.00;99.90
52725;DHT22;38621;52.830;6.914;2023-09-19T14:09:27;18.10;99.90
52725;DHT22;38621;52.830;6.914;2023-09-19T14:11:53;18.10;99.90
52725;DHT22;38621;52.830;6.914;2023-09-19T14:14:19;18.20;99.90
52725;DHT22;38621;52.830;6.914;2023-09-19T14:16:48;18.30;99.90
52725;DHT22;38621;52.830;6.914;2023-09-19T14:19:14;18.30;99.90
52725;DHT22;38621;52.830;6.914;2023-09-19T14:21:42;18.40;99.90
52725;DHT22;38621;52.830;6.914;2023-09-19T14:24:08;18.50;99.90
52725;DHT22;38621;52.830;6.914;2023-09-19T14:26:38;18.50;99.90
52725;DHT22;38621;52.830;6.914;2023-09-19T14:29:04;18.50;99.90
52725;DHT22;38621;52.830;6.914;2023-09-19T14:31:33;18.50;99.90
52725;DHT22;38621;52.830;6.914;2023-09-19T14:33:59;18.50;99.90
52725;DHT22;38621;52.830;6.914;2023-09-19T14:36:25;18.50;99.90
52725;DHT22;38621;52.830;6.914;2023-09-19T14:38:55;18.50;99.90
52725;DHT22;38621;52.830;6.914;2023-09-19T14:41:23;18.50;99.90
52725;DHT22;38621;52.830;6.914;2023-09-19T14:43:51;18.40;99.90
52725;DHT22;38621;52.830;6.914;2023-09-19T14:46:17;18.40;99.90
52725;DHT22;38621;52.830;6.914;2023-09-19T14:48:44;18.40;99.90
52725;DHT22;38621;52.830;6.914;2023-09-19T14:51:13;18.40;99.90
52725;DHT22;38621;52.830;6.914;2023-09-19T14:53:42;18.40;99.90
52725;DHT22;38621;52.830;6.914;2023-09-19T14:56:09;18.40;99.90
52725;DHT22;38621;52.830;6.914;2023-09-19T14:58:35;18.40;99.90
52725;DHT22;38621;52.830;6.914;2023-09-19T15:01:09;18.40;99.90
52725;DHT22;38621;52.830;6.914;2023-09-19T15:03:38;18.40;99.90
52725;DHT22;38621;52.830;6.914;2023-09-19T15:06:10;18.30;99.90
52725;DHT22;38621;52.830;6.914;2023-09-19T15:08:38;18.30;99.90
52725;DHT22;38621;52.830;6.914;2023-09-19T15:11:07;18.30;99.90
52725;DHT22;38621;52.830;6.914;2023-09-19T15:13:34;18.30;99.90
52725;DHT22;38621;52.830;6.914;2023-09-19T15:16:04;18.30;99.90
52725;DHT22;38621;52.830;6.914;2023-09-19T15:18:30;18.30;99.90
52725;DHT22;38621;52.830;6.914;2023-09-19T15:21:06;18.30;99.90
52725;DHT22;38621;52.830;6.914;2023-09-19T15:23:32;18.30;99.90
52725;DHT22;38621;52.830;6.914;2023-09-19T15:26:17;18.30;99.90
52725;DHT22;38621;52.830;6.914;2023-09-19T15:28:45;18.30;99.90
52725;DHT22;38621;52.830;6.914;2023-09-19T15:31:12;18.30;99.90
52725;DHT22;38621;52.830;6.914;2023-09-19T15:33:39;18.30;99.90
52725;DHT22;38621;52.830;6.914;2023-09-19T15:36:06;18.40;99.90
52725;DHT22;38621;52.830;6.914;2023-09-19T15:41:26;18.30;99.90
52725;DHT22;38621;52.830;6.914;2023-09-19T15:43:53;18.30;99.90
52725;DHT22;38621;52.830;6.914;2023-09-19T15:46:19;18.30;99.90
52725;DHT22;38621;52.830;6.914;2023-09-19T15:48:45;18.30;99.90
52725;DHT22;38621;52.830;6.914;2023-09-19T15:51:12;18.30;99.90
52725;DHT22;38621;52.830;6.914;2023-09-19T15:56:11;18.30;99.90
52725;DHT22;38621;52.830;6.914;2023-09-19T15:58:37;18.30;99.90
52725;DHT22;38621;52.830;6.914;2023-09-19T16:01:08;18.20;99.90
52725;DHT22;38621;52.830;6.914;2023-09-19T16:03:44;18.30;99.90
52725;DHT22;38621;52.830;6.914;2023-09-19T16:06:12;18.30;99.90
52725;DHT22;38621;52.830;6.914;2023-09-19T16:08:42;18.30;99.90
52725;DHT22;38621;52.830;6.914;2023-09-19T16:11:09;18.40;99.90
52725;DHT22;38621;52.830;6.914;2023-09-19T16:13:36;18.40;99.90
52725;DHT22;38621;52.830;6.914;2023-09-19T16:16:02;18.40;99.90
52725;DHT22;38621;52.830;6.914;2023-09-19T16:18:29;18.30;99.90
52725;DHT22;38621;52.830;6.914;2023-09-19T16:21:03;18.40;99.90
52725;DHT22;38621;52.830;6.914;2023-09-19T16:23:32;18.30;99.90
52725;DHT22;38621;52.830;6.914;2023-09-19T16:28:37;18.30;99.90
52725;DHT22;38621;52.830;6.914;2023-09-19T16:31:03;18.20;99.90
52725;DHT22;38621;52.830;6.914;2023-09-19T16:33:34;18.30;99.90
52725;DHT22;38621;52.830;6.914;2023-09-19T16:36:00;18.30;99.90
52725;DHT22;38621;52.830;6.914;2023-09-19T16:38:27;18.30;99.90
52725;DHT22;38621;52.830;6.914;2023-09-19T16:40:57;18.30;99.90
52725;DHT22;38621;52.830;6.914;2023-09-19T16:43:26;18.30;99.90
52725;DHT22;38621;52.830;6.914;2023-09-19T16:45:53;18.30;99.90